createdAt,value
2022-08-16T00:20:57.137Z,19.92
2022-08-16T00:24:12.323Z,19.91
2022-08-16T00:48:31.213Z,19.89
2022-08-16T00:52:30.735Z,19.80
2022-08-16T00:56:58.627Z,19.74
2022-08-16T01:20:24.011Z,19.77
2022-08-16T01:24:53.210Z,19.74
2022-08-16T01:27:54.128Z,19.71
2022-08-16T01:31:15.791Z,19.72
2022-08-16T01:34:47.484Z,19.72
2022-08-16T01:38:48.824Z,19.75
2022-08-16T01:42:20.227Z,19.70
2022-08-16T01:46:37.700Z,19.67
2022-08-16T01:50:43.609Z,19.72
2022-08-16T01:53:25.138Z,19.69
2022-08-16T01:57:24.610Z,19.66
2022-08-16T02:00:54.939Z,19.70
2022-08-16T02:19:00.910Z,19.78
2022-08-16T02:22:52.854Z,19.79
2022-08-16T02:26:49.760Z,19.81
2022-08-16T02:30:50.071Z,19.85
2022-08-16T02:34:45.891Z,19.86
2022-08-16T02:42:28.611Z,19.90
2022-08-16T02:46:10.777Z,19.86
2022-08-16T02:50:54.119Z,19.81
2022-08-16T02:54:17.006Z,19.75
2022-08-16T02:58:09.232Z,19.70
2022-08-16T03:02:02.658Z,19.69
2022-08-16T03:21:38.937Z,19.86
2022-08-16T03:25:40.962Z,19.87
2022-08-16T03:29:37.548Z,19.87
2022-08-16T03:33:29.807Z,19.87
2022-08-16T03:44:49.502Z,19.84
2022-08-16T03:48:04.492Z,19.76
2022-08-16T03:51:44.863Z,19.67
2022-08-16T03:55:45.210Z,19.71
2022-08-16T03:59:39.178Z,19.73
2022-08-16T04:03:29.098Z,19.76
2022-08-16T04:07:07.906Z,19.77
2022-08-16T04:10:53.511Z,19.75
2022-08-16T04:14:38.391Z,19.73
2022-08-16T04:37:21.197Z,19.82
2022-08-16T04:41:12.701Z,19.87
2022-08-16T04:44:54.591Z,19.91
2022-08-16T04:48:48.925Z,19.98
2022-08-16T04:52:42.791Z,20.08
2022-08-16T04:56:46.182Z,20.17
2022-08-16T05:16:04.542Z,20.59
2022-08-16T05:19:58.317Z,20.65
2022-08-16T05:23:58.492Z,20.75
2022-08-16T05:27:51.572Z,20.87
2022-08-16T05:50:33.975Z,21.70
2022-08-16T05:54:07.790Z,21.80
2022-08-16T05:57:52.496Z,21.86
2022-08-16T06:01:38.204Z,21.89
2022-08-16T06:05:11.756Z,21.90
2022-08-16T06:08:46.566Z,21.90
2022-08-16T06:12:02.463Z,21.87
2022-08-16T06:15:44.035Z,21.85
2022-08-16T06:54:41.895Z,23.10
2022-08-16T07:28:20.539Z,23.82
2022-08-16T07:30:52.267Z,23.87
2022-08-16T07:33:56.628Z,23.90
2022-08-16T07:36:30.798Z,23.95
2022-08-16T07:39:12.488Z,23.99
2022-08-16T07:41:44.802Z,24.03
2022-08-16T07:44:16.290Z,24.04
2022-08-16T07:47:08.423Z,23.89
2022-08-16T07:49:57.852Z,23.69
2022-08-16T07:52:29.616Z,23.42
2022-08-16T07:55:00.765Z,23.16
2022-08-16T07:57:44.267Z,23.00
2022-08-16T08:00:59.398Z,22.80
2022-08-16T08:03:35.964Z,22.49
2022-08-16T08:06:16.904Z,22.22
2022-08-16T08:08:52.550Z,22.01
2022-08-16T08:11:41.025Z,21.85
2022-08-16T08:14:34.537Z,21.79
2022-08-16T08:17:42.651Z,21.80
2022-08-16T08:20:26.395Z,21.76
2022-08-16T08:23:28.376Z,21.69
2022-08-16T08:26:09.903Z,21.64
2022-08-16T08:29:00.915Z,21.60
2022-08-16T08:31:40.042Z,21.56
2022-08-16T08:34:15.252Z,21.64
2022-08-16T08:37:09.632Z,21.76
2022-08-16T08:39:55.359Z,21.90
2022-08-16T08:42:30.035Z,22.10
2022-08-16T08:45:29.788Z,22.24
2022-08-16T08:48:34.631Z,22.38
2022-08-16T08:51:19.248Z,22.41
2022-08-16T08:54:33.445Z,22.39
2022-08-16T08:57:11.147Z,22.30
2022-08-16T09:00:21.396Z,22.16
2022-08-16T09:03:04.295Z,22.08
2022-08-16T09:06:01.538Z,22.00
2022-08-16T09:08:47.494Z,21.86
2022-08-16T09:12:04.122Z,21.73
2022-08-16T09:14:51.006Z,21.58
2022-08-16T09:18:25.234Z,21.54
2022-08-16T09:21:00.800Z,21.46
2022-08-16T09:23:37.871Z,21.40
2022-08-16T09:26:45.399Z,21.33
2022-08-16T09:29:45.000Z,21.31
2022-08-16T09:32:32.853Z,21.36
2022-08-16T09:35:30.669Z,21.37
2022-08-16T09:38:31.191Z,21.37
2022-08-16T09:41:14.668Z,21.44
2022-08-16T09:45:09.424Z,21.50
2022-08-16T09:47:30.090Z,21.55
2022-08-16T09:50:36.840Z,21.60
2022-08-16T09:53:23.448Z,21.66
2022-08-16T09:56:26.408Z,21.69
2022-08-16T09:59:31.003Z,21.76
2022-08-16T10:02:26.982Z,21.83
2022-08-16T10:05:11.991Z,21.93
2022-08-16T10:07:45.402Z,22.04
2022-08-16T10:10:18.867Z,22.13
2022-08-16T10:13:16.882Z,22.12
2022-08-16T10:16:16.676Z,22.08
2022-08-16T10:19:35.886Z,22.12
2022-08-16T10:22:16.016Z,22.19
2022-08-16T10:25:02.737Z,22.28
2022-08-16T10:28:28.339Z,22.45
2022-08-16T10:31:14.651Z,22.66
2022-08-16T10:34:31.258Z,22.83
2022-08-16T10:37:08.863Z,23.12
2022-08-16T10:39:44.696Z,23.33
2022-08-16T10:43:02.129Z,23.55
2022-08-16T10:46:00.108Z,23.68
2022-08-16T10:49:34.145Z,23.78
2022-08-16T10:52:59.460Z,24.00
2022-08-16T10:55:40.856Z,24.26
2022-08-16T10:58:17.148Z,24.50
2022-08-16T11:00:48.537Z,24.75
2022-08-16T11:06:12.080Z,25.24
2022-08-16T11:08:47.214Z,25.54
2022-08-16T11:11:31.509Z,25.75
2022-08-16T11:14:10.588Z,25.91
2022-08-16T11:20:00.590Z,26.07
2022-08-16T11:22:41.951Z,26.04
2022-08-16T11:31:11.317Z,26.39
2022-08-16T11:33:59.129Z,26.62
2022-08-16T11:36:29.936Z,26.88
2022-08-16T11:39:00.744Z,27.17
2022-08-16T11:41:35.111Z,27.38
2022-08-16T11:44:07.388Z,27.55
2022-08-16T11:47:26.726Z,27.77
2022-08-16T11:49:55.538Z,27.93
2022-08-16T11:52:25.692Z,28.08
2022-08-16T11:55:00.038Z,28.27
2022-08-16T11:57:30.573Z,28.41
2022-08-16T12:00:33.628Z,28.55
2022-08-16T12:03:07.454Z,28.76
2022-08-16T12:05:39.621Z,28.93
2022-08-16T12:08:10.385Z,29.09
2022-08-16T12:10:45.568Z,29.23
2022-08-16T12:13:15.933Z,29.40
2022-08-16T12:15:46.373Z,29.54
2022-08-16T12:18:20.701Z,29.66
2022-08-16T12:20:50.883Z,29.81
2022-08-16T12:23:25.832Z,29.79
2022-08-16T12:25:58.582Z,29.84
2022-08-16T12:28:53.935Z,29.95
2022-08-16T12:31:24.661Z,30.02
2022-08-16T12:33:57.559Z,30.18
2022-08-16T12:36:30.175Z,30.25
2022-08-16T12:39:01.204Z,30.31
2022-08-16T12:41:34.734Z,30.29
2022-08-16T12:44:06.818Z,30.29
2022-08-16T12:46:36.160Z,30.35
2022-08-16T12:49:06.845Z,30.36
2022-08-16T12:51:58.599Z,30.53
2022-08-16T12:54:32.091Z,30.67
2022-08-16T12:57:03.902Z,30.82
2022-08-16T12:59:35.492Z,30.91
2022-08-16T13:02:12.347Z,30.93
2022-08-16T13:04:52.603Z,30.90
2022-08-16T13:07:27.268Z,30.89
2022-08-16T13:09:58.814Z,30.89
2022-08-16T13:12:28.893Z,30.97
2022-08-16T13:14:58.769Z,30.98
2022-08-16T13:17:29.788Z,30.94
2022-08-16T13:20:09.428Z,30.95
2022-08-16T13:22:47.094Z,30.98
2022-08-16T13:25:22.991Z,31.14
2022-08-16T13:28:01.731Z,31.14
2022-08-16T13:30:41.281Z,31.17
2022-08-16T13:33:17.489Z,31.23
2022-08-16T13:35:55.654Z,31.18
2022-08-16T13:38:37.061Z,31.18
2022-08-16T13:41:10.223Z,31.20
2022-08-16T13:43:40.440Z,31.21
2022-08-16T13:46:09.910Z,31.23
2022-08-16T13:48:44.490Z,31.22
2022-08-16T13:51:18.096Z,31.27
2022-08-16T13:54:03.786Z,31.39
2022-08-16T13:56:39.512Z,31.50
2022-08-16T13:59:16.587Z,31.52
2022-08-16T14:01:59.832Z,31.49
2022-08-16T14:04:37.912Z,31.44
2022-08-16T14:07:19.950Z,31.44
2022-08-16T14:09:55.224Z,31.46
2022-08-16T14:12:33.386Z,31.49
2022-08-16T14:15:05.452Z,31.48
2022-08-16T14:18:16.030Z,31.43
2022-08-16T14:20:26.378Z,31.40
2022-08-16T14:22:55.716Z,31.35
2022-08-16T14:25:26.824Z,31.33
2022-08-16T14:27:57.376Z,31.33
2022-08-16T14:30:27.425Z,31.34
2022-08-16T14:32:58.606Z,31.38
2022-08-16T14:35:48.315Z,31.42
2022-08-16T14:38:24.027Z,31.45
2022-08-16T14:40:56.345Z,31.42
2022-08-16T14:43:35.720Z,31.41
2022-08-16T14:46:07.600Z,31.36
2022-08-16T14:48:41.160Z,31.33
2022-08-16T14:51:20.846Z,31.27
2022-08-16T14:53:54.670Z,31.24
2022-08-16T14:56:38.758Z,31.20
2022-08-16T14:59:16.135Z,31.18
2022-08-16T15:01:59.295Z,31.15
2022-08-16T15:04:47.948Z,31.12
2022-08-16T15:07:22.153Z,31.04
2022-08-16T15:10:00.479Z,30.94
2022-08-16T15:12:36.577Z,30.92
2022-08-16T15:15:56.238Z,30.90
2022-08-16T15:18:39.567Z,30.83
2022-08-16T15:21:12.509Z,30.73
2022-08-16T15:23:42.677Z,30.62
2022-08-16T15:26:42.820Z,30.56
2022-08-16T15:29:15.496Z,30.51
2022-08-16T15:31:54.484Z,30.48
2022-08-16T15:35:04.909Z,30.43
2022-08-16T15:37:42.920Z,30.41
2022-08-16T15:40:32.321Z,30.33
2022-08-16T15:43:33.852Z,30.26
2022-08-16T15:46:53.983Z,30.16
2022-08-16T15:49:17.301Z,30.06
2022-08-16T15:51:47.076Z,29.99
2022-08-16T15:54:30.047Z,29.95
2022-08-16T15:57:10.939Z,29.89
2022-08-16T15:59:49.339Z,29.79
2022-08-16T16:02:29.265Z,29.77
2022-08-16T16:05:10.171Z,29.73
2022-08-16T16:07:40.794Z,29.64
2022-08-16T16:10:29.309Z,29.56
2022-08-16T16:13:05.509Z,29.49
2022-08-16T16:15:54.086Z,29.45
2022-08-16T16:18:26.495Z,29.39
2022-08-16T16:21:02.122Z,29.34
2022-08-16T16:23:53.857Z,29.26
2022-08-16T16:26:29.310Z,29.22
2022-08-16T16:29:07.843Z,29.16
2022-08-16T16:31:59.191Z,29.11
2022-08-16T16:34:32.358Z,29.05
2022-08-16T16:37:09.971Z,29.02
2022-08-16T16:39:44.893Z,29.01
2022-08-16T16:42:29.194Z,28.99
2022-08-16T16:45:02.172Z,28.94
2022-08-16T16:47:41.606Z,28.90
2022-08-16T16:50:16.579Z,28.86
2022-08-16T16:52:50.017Z,28.83
2022-08-16T16:55:26.478Z,28.80
2022-08-16T16:58:29.017Z,28.76
2022-08-16T17:01:08.177Z,28.70
2022-08-16T17:03:38.968Z,28.65
2022-08-16T17:06:10.545Z,28.58
2022-08-16T17:08:42.320Z,28.48
2022-08-16T17:11:14.426Z,28.38
2022-08-16T17:13:44.957Z,28.28
2022-08-16T17:16:18.784Z,28.16
2022-08-16T17:19:16.999Z,27.98
2022-08-16T17:21:49.369Z,27.77
2022-08-16T17:24:22.283Z,27.56
2022-08-16T17:27:04.106Z,27.36
2022-08-16T17:29:45.899Z,27.17
2022-08-16T17:32:46.502Z,26.97
2022-08-16T17:35:34.080Z,26.77
2022-08-16T17:38:08.534Z,26.60
2022-08-16T17:40:57.447Z,26.42
2022-08-16T17:43:43.817Z,26.23
2022-08-16T17:46:41.778Z,26.00
2022-08-16T17:49:08.052Z,25.75
2022-08-16T17:51:37.916Z,25.63
2022-08-16T17:54:08.999Z,25.54
2022-08-16T17:56:50.528Z,25.36
2022-08-16T17:59:23.352Z,25.15
2022-08-16T18:01:53.688Z,24.99
2022-08-16T18:04:43.610Z,24.86
2022-08-16T18:07:16.518Z,24.69
2022-08-16T18:09:46.505Z,24.57
2022-08-16T18:12:44.150Z,24.50
2022-08-16T18:15:17.088Z,24.43
2022-08-16T18:17:48.945Z,24.36
2022-08-16T18:20:43.526Z,24.26
2022-08-16T18:23:22.065Z,24.12
2022-08-16T18:25:59.924Z,24.01
2022-08-16T18:28:35.251Z,23.91
2022-08-16T18:31:10.925Z,23.82
2022-08-16T18:33:44.173Z,23.74
2022-08-16T18:36:20.230Z,23.62
2022-08-16T18:38:53.664Z,23.47
2022-08-16T18:41:25.848Z,23.32
2022-08-16T18:44:26.879Z,23.20
2022-08-16T18:46:50.991Z,23.14
2022-08-16T18:49:25.802Z,23.07
2022-08-16T18:52:02.885Z,22.96
2022-08-16T18:55:01.543Z,22.81
2022-08-16T18:57:39.342Z,22.58
2022-08-16T19:00:22.972Z,22.62
2022-08-16T19:03:05.983Z,22.72
2022-08-16T19:05:53.419Z,22.80
2022-08-16T19:09:10.783Z,22.88
2022-08-16T19:11:58.534Z,22.94
2022-08-16T19:15:14.052Z,22.92
2022-08-16T19:18:14.256Z,22.68
2022-08-16T19:21:14.558Z,22.57
2022-08-16T19:24:36.098Z,22.37
2022-08-16T19:27:50.989Z,22.17
2022-08-16T19:31:18.445Z,21.94
2022-08-16T19:34:18.159Z,21.78
2022-08-16T20:19:45.423Z,21.02
2022-08-16T20:22:53.876Z,20.97
2022-08-16T20:26:11.738Z,20.92
2022-08-16T20:29:09.544Z,20.97
2022-08-16T20:32:02.662Z,21.03
2022-08-16T20:34:50.986Z,21.09
2022-08-16T20:38:04.561Z,21.09
2022-08-16T20:40:59.665Z,20.94
2022-08-16T20:43:54.982Z,20.87
2022-08-16T20:47:01.723Z,20.76
2022-08-16T20:49:49.018Z,20.65
2022-08-16T20:52:41.806Z,20.60
2022-08-16T20:55:45.928Z,20.66
2022-08-16T20:58:55.494Z,20.70
2022-08-16T21:02:05.908Z,20.68
2022-08-16T21:04:46.038Z,20.71
2022-08-16T21:07:25.847Z,20.73
2022-08-16T21:10:27.002Z,20.71
2022-08-16T21:13:31.111Z,20.63
2022-08-16T21:16:14.095Z,20.52
2022-08-16T21:18:47.171Z,20.42
2022-08-16T21:21:44.365Z,20.35
2022-08-16T21:24:40.106Z,20.33
2022-08-16T21:27:44.532Z,20.35
2022-08-16T21:30:56.585Z,20.29
2022-08-16T21:33:54.141Z,20.16
2022-08-16T21:36:50.072Z,20.09
2022-08-16T21:39:43.875Z,20.11
2022-08-16T21:42:36.769Z,20.13
2022-08-16T21:45:28.133Z,20.12
2022-08-16T21:48:33.957Z,20.16
2022-08-16T21:51:37.983Z,20.14
2022-08-16T21:54:32.423Z,20.12
2022-08-16T21:57:40.593Z,20.16
2022-08-16T22:01:08.289Z,20.20
2022-08-16T22:04:37.921Z,20.22
2022-08-16T22:07:18.318Z,20.22
2022-08-16T22:11:07.486Z,20.20
2022-08-16T22:14:10.597Z,20.17
2022-08-16T22:17:04.125Z,20.14
2022-08-16T22:20:24.640Z,20.11
2022-08-16T22:23:14.769Z,20.08
2022-08-16T22:26:36.779Z,20.05
2022-08-16T22:29:38.240Z,19.98
2022-08-16T22:32:49.747Z,19.94
2022-08-16T22:36:01.542Z,19.90
2022-08-16T22:38:57.533Z,19.86
2022-08-16T22:42:08.437Z,19.84
2022-08-16T22:45:14.467Z,19.66
2022-08-16T22:48:32.350Z,19.55
2022-08-16T22:51:24.669Z,19.51
2022-08-16T22:54:34.207Z,19.49
2022-08-16T22:57:57.238Z,19.47
2022-08-16T23:01:13.247Z,19.44
2022-08-16T23:04:09.678Z,19.45
2022-08-16T23:07:32.436Z,19.43
2022-08-16T23:10:44.892Z,19.45
2022-08-16T23:14:16.727Z,19.46
2022-08-16T23:17:41.517Z,19.46
2022-08-16T23:21:04.476Z,19.44
2022-08-16T23:24:30.434Z,19.42
2022-08-16T23:28:05.423Z,19.38
2022-08-16T23:31:28.240Z,19.34
2022-08-16T23:35:11.537Z,19.29
2022-08-16T23:39:04.710Z,19.26
2022-08-16T23:42:52.545Z,19.21
2022-08-16T23:46:13.523Z,19.19
2022-08-16T23:49:57.197Z,19.17
2022-08-16T23:53:41.424Z,19.12
